Time;durP1;ratioP1;P1;durP2;ratioP2;P2;SDS_P1;SDS_P2;PMS_P1;PMS_P2;Temp;Humidity;BMP_temperature;BMP_pressure;BME280_temperature;BME280_humidity;BME280_pressure;Samples;Min_cycle;Max_cycle;Signal;HPM_P1;HPM_P2
2023/07/28 01:47:14;;;;;;;9.80;6.87;;;;;;;25.35;78.78;98724.83;1809325;79;28249;-79
2023/07/28 01:50:19;;;;;;;10.10;6.95;;;;;;;26.55;75.17;98725.73;1784400;80;21303;-78
2023/07/28 01:53:26;;;;;;;13.78;6.70;;;;;;;26.65;72.16;98731.06;1783982;80;21624;-79
2023/07/28 01:56:32;;;;;;;9.33;6.30;;;;;;;26.64;72.36;98796.72;1776509;80;21382;-79
2023/07/28 01:59:38;;;;;;;9.30;5.70;;;;;;;27.39;69.12;98771.75;1785389;80;21868;-78
2023/07/28 02:02:43;;;;;;;8.03;5.40;;;;;;;26.96;69.63;98738.64;1785263;80;21307;-79
2023/07/28 02:05:42;;;;;;;9.98;5.72;;;;;;;27.41;67.27;98717.48;1784612;80;21892;-78
2023/07/28 02:08:34;;;;;;;7.60;5.28;;;;;;;26.60;69.47;98715.78;1785317;80;21331;-78
2023/07/28 02:11:20;;;;;;;9.08;5.05;;;;;;;26.24;69.55;98718.05;1785409;80;21302;-78
2023/07/28 02:14:13;;;;;;;6.72;4.83;;;;;;;28.06;64.66;98726.47;1785162;80;21302;-78
2023/07/28 02:17:00;;;;;;;7.50;4.67;;;;;;;27.81;64.88;98708.99;1783748;80;21326;-79
2023/07/28 02:20:05;;;;;;;7.87;4.65;;;;;;;26.90;68.35;98697.87;1785470;80;21319;-79
2023/07/28 02:23:10;;;;;;;6.90;5.53;;;;;;;25.83;70.13;98674.81;1785312;80;21287;-79
2023/07/28 02:26:16;;;;;;;5.58;5.05;;;;;;;27.21;66.79;98648.17;1784394;80;21311;-78
2023/07/28 02:29:23;;;;;;;6.40;5.10;;;;;;;26.27;68.60;98626.92;1785197;80;21865;-79
2023/07/28 02:32:29;;;;;;;8.75;5.05;;;;;;;25.98;70.17;98597.41;1785115;80;21869;-79
2023/07/28 02:35:36;;;;;;;5.50;4.60;;;;;;;26.18;68.83;98572.80;1784972;80;21334;-79
2023/07/28 02:38:42;;;;;;;6.08;4.70;;;;;;;26.07;68.89;98595.24;1754159;81;21299;-79
2023/07/28 02:41:48;;;;;;;5.80;4.53;;;;;;;25.61;70.83;98616.77;1752726;81;21334;-79
2023/07/28 02:44:54;;;;;;;5.15;4.47;;;;;;;25.64;70.33;98606.34;1754216;81;21330;-79
2023/07/28 02:47:59;;;;;;;9.23;4.78;;;;;;;25.35;70.96;98588.53;1737035;81;21893;-79
2023/07/28 02:51:06;;;;;;;5.35;4.85;;;;;;;25.49;70.43;98556.31;1737372;82;21325;-79
2023/07/28 02:54:12;;;;;;;5.62;3.92;;;;;;;25.70;69.73;98549.66;1737442;82;21307;-79
2023/07/28 03:01:29;;;;;;;7.17;5.30;;;;;;;25.87;69.25;98554.56;1736718;82;21208;-79
2023/07/28 03:04:35;;;;;;;6.45;4.95;;;;;;;25.34;70.66;98563.67;1737807;82;21355;-79
2023/07/28 03:07:41;;;;;;;6.40;5.03;;;;;;;24.58;74.43;98554.39;1736416;82;21874;-79
2023/07/28 03:10:47;;;;;;;7.35;6.03;;;;;;;25.33;72.42;98563.42;1736428;82;21886;-79
2023/07/28 03:13:52;;;;;;;13.30;6.83;;;;;;;25.82;70.58;98567.30;1737851;82;21323;-79
2023/07/28 03:17:00;;;;;;;8.43;6.60;;;;;;;25.47;71.37;98576.80;1736902;82;21905;-79
2023/07/28 03:20:06;;;;;;;9.53;8.00;;;;;;;25.92;70.45;98568.42;1737830;82;21311;-79
2023/07/28 03:23:12;;;;;;;10.88;8.98;;;;;;;25.91;70.70;98576.58;1738182;82;21311;-79
2023/07/28 03:26:17;;;;;;;16.27;9.70;;;;;;;25.84;71.00;98570.63;1737652;82;21342;-79
2023/07/28 03:29:23;;;;;;;15.95;11.55;;;;;;;24.99;74.18;98555.76;1737761;82;21327;-79
2023/07/28 03:32:29;;;;;;;20.17;15.15;;;;;;;24.54;77.24;98567.33;1736883;82;21343;-79
2023/07/28 03:35:28;;;;;;;17.12;14.07;;;;;;;24.61;77.61;98582.31;1756043;81;21297;-79
2023/07/28 03:38:34;;;;;;;21.95;16.70;;;;;;;24.79;77.12;98604.28;1738147;82;21349;-79
2023/07/28 05:09:44;;;;;;;33.65;25.27;;;;;;;21.25;100.00;98661.09;1782368;79;28300;-82
2023/07/28 05:12:51;;;;;;;39.53;28.15;;;;;;;21.84;94.37;98660.20;1784313;80;21148;-82
2023/07/28 05:15:58;;;;;;;47.25;28.52;;;;;;;21.31;95.73;98662.75;1784167;80;21244;-83
2023/07/28 05:19:05;;;;;;;41.23;27.98;;;;;;;21.26;96.60;98648.84;1696898;82;21834;-82
2023/07/28 05:22:27;;;;;;;47.10;29.15;;;;;;;21.33;95.76;98649.41;1785477;80;21314;-82
2023/07/28 05:25:34;;;;;;;53.50;33.88;;;;;;;21.41;94.50;98652.98;1753003;82;21307;-81
2023/07/28 05:28:41;;;;;;;48.25;30.50;;;;;;;21.40;94.40;98667.98;1784455;80;21377;-84
2023/07/28 05:31:47;;;;;;;48.85;30.80;;;;;;;21.37;94.55;98663.02;1752654;82;21911;-82
2023/07/28 05:34:55;;;;;;;42.23;25.85;;;;;;;21.13;95.93;98650.33;1785444;80;21902;-83
2023/07/28 05:38:01;;;;;;;39.70;27.67;;;;;;;21.14;96.49;98644.47;1752183;82;21860;-85
2023/07/28 05:41:08;;;;;;;38.60;25.20;;;;;;;21.13;96.03;98636.42;1785421;80;21275;-81
2023/07/28 05:44:14;;;;;;;35.30;25.65;;;;;;;21.35;95.32;98634.08;1752033;82;21318;-79
2023/07/28 05:47:20;;;;;;;39.08;26.50;;;;;;;21.23;96.05;98631.37;1785885;80;21267;-84
2023/07/28 05:50:26;;;;;;;44.35;26.73;;;;;;;20.95;96.96;98644.84;1752922;82;21282;-84
2023/07/28 05:53:33;;;;;;;44.13;29.10;;;;;;;20.47;99.88;98638.89;1784647;80;21926;-79
2023/07/28 05:56:41;;;;;;;61.37;32.70;;;;;;;19.81;100.00;98625.06;1726087;82;21883;-80
2023/07/28 05:59:46;;;;;;;62.62;37.23;;;;;;;20.95;98.28;98605.11;1780602;80;21827;-85
2023/07/28 06:02:53;;;;;;;73.33;41.80;;;;;;;21.25;96.00;98581.85;1747342;80;21286;-79
2023/07/28 06:06:02;;;;;;;74.25;38.85;;;;;;;21.22;94.98;98587.45;1776659;80;21189;-81
2023/07/28 06:09:07;;;;;;;79.82;42.83;;;;;;;21.38;94.27;98584.85;1779289;80;21291;-85
2023/07/28 06:12:16;;;;;;;61.37;37.55;;;;;;;19.36;100.00;98580.91;1778649;80;21864;-78
2023/07/28 06:15:22;;;;;;;54.83;32.30;;;;;;;19.08;100.00;98588.61;1779658;80;21354;-85
2023/07/28 06:18:29;;;;;;;54.70;35.00;;;;;;;19.00;100.00;98600.22;1779253;80;21300;-80
2023/07/28 06:21:39;;;;;;;51.48;32.63;;;;;;;21.44;99.89;98615.67;1778103;80;21756;-81
2023/07/28 06:24:44;;;;;;;41.05;27.02;;;;;;;22.24;91.92;98624.23;1735626;82;21832;-85
2023/07/28 06:27:51;;;;;;;37.33;23.65;;;;;;;21.80;92.48;98634.07;1735916;82;21327;-85
2023/07/28 06:31:05;;;;;;;37.95;26.57;;;;;;;22.25;90.33;98650.95;1735984;82;21300;-86
2023/07/28 06:34:12;;;;;;;51.88;26.62;;;;;;;22.47;87.63;98648.25;1766642;80;21322;-80
2023/07/28 06:37:18;;;;;;;31.02;22.17;;;;;;;20.15;96.92;98658.06;1742983;80;21282;-85
2023/07/28 06:40:24;;;;;;;25.40;19.30;;;;;;;20.74;98.72;98669.08;1765321;80;21350;-85
2023/07/28 06:43:30;;;;;;;29.20;20.43;;;;;;;20.72;99.10;98676.05;1766391;81;21341;-85
2023/07/28 06:46:37;;;;;;;33.95;21.95;;;;;;;21.03;96.80;98679.00;1766750;81;21295;-80
2023/07/28 06:49:44;;;;;;;31.73;23.00;;;;;;;20.67;98.32;98670.77;1770357;80;21851;-79
2023/07/28 06:52:51;;;;;;;29.15;21.93;;;;;;;21.02;96.25;98664.80;1764332;80;21282;-83
2023/07/28 06:55:58;;;;;;;29.48;22.13;;;;;;;21.03;95.04;98672.58;1779643;80;21289;-80
2023/07/28 06:59:04;;;;;;;31.93;21.48;;;;;;;21.11;94.93;98672.00;1778718;80;21886;-85
2023/07/28 07:02:11;;;;;;;28.60;18.80;;;;;;;21.30;93.99;98663.28;1779457;80;21311;-80
2023/07/28 07:05:19;;;;;;;20.62;15.23;;;;;;;21.23;94.20;98653.61;1769805;80;21264;-80
2023/07/28 07:08:26;;;;;;;22.67;15.65;;;;;;;20.80;94.29;98667.97;1779117;80;21887;-85
2023/07/28 07:11:31;;;;;;;23.57;16.45;;;;;;;20.75;93.91;98674.93;1778075;80;21335;-80
2023/07/28 07:14:37;;;;;;;17.55;14.45;;;;;;;20.14;92.62;98682.77;1742278;81;21321;-80
2023/07/28 07:17:42;;;;;;;16.48;12.30;;;;;;;20.84;94.47;98686.27;1740106;80;21315;-85
2023/07/28 07:20:47;;;;;;;18.95;14.60;;;;;;;20.95;93.51;98690.70;1749131;81;21278;-81
2023/07/28 07:23:45;;;;;;;18.90;13.10;;;;;;;21.36;91.55;98687.75;1765425;81;21775;-84
2023/07/28 07:26:45;;;;;;;14.23;11.70;;;;;;;21.35;90.93;98685.53;1769746;80;21331;-83
2023/07/28 07:29:50;;;;;;;14.83;10.45;;;;;;;21.31;91.51;98685.00;1734687;82;21303;-85
2023/07/28 07:32:56;;;;;;;14.00;9.28;;;;;;;21.51;90.46;98683.52;1751654;82;21874;-84
2023/07/28 07:36:03;;;;;;;23.50;8.70;;;;;;;19.25;100.00;98672.09;1772745;80;21283;-83
2023/07/28 07:39:08;;;;;;;11.25;8.10;;;;;;;18.68;100.00;98664.59;1755916;81;21314;-84
2023/07/28 07:42:14;;;;;;;9.83;7.75;;;;;;;19.26;100.00;98669.59;1741541;81;21851;-85
2023/07/28 07:45:21;;;;;;;12.28;6.58;;;;;;;19.53;100.00;98673.55;1765252;81;21310;-81
2023/07/28 07:48:27;;;;;;;12.88;6.65;;;;;;;19.65;100.00;98687.44;1764783;81;21318;-84
2023/07/28 07:51:37;;;;;;;7.70;6.22;;;;;;;19.51;100.00;98694.59;1769143;80;21287;-79
2023/07/28 07:54:43;;;;;;;8.87;6.60;;;;;;;19.27;100.00;98698.97;1777699;80;21311;-79
2023/07/28 07:57:49;;;;;;;8.90;7.72;;;;;;;19.01;100.00;98697.50;1777484;80;21782;-80
2023/07/28 08:00:54;;;;;;;12.25;9.95;;;;;;;19.17;100.00;98700.32;1776854;80;21942;-83
2023/07/28 08:03:59;;;;;;;17.80;11.95;;;;;;;19.33;100.00;98689.55;1777724;80;21339;-85
2023/07/28 08:07:05;;;;;;;14.28;11.20;;;;;;;19.51;100.00;98700.14;1777005;80;21275;-84
2023/07/28 08:10:25;;;;;;;14.38;10.48;;;;;;;19.64;100.00;98704.37;1778289;80;21331;-84
2023/07/28 08:13:31;;;;;;;18.02;11.40;;;;;;;19.68;100.00;98701.89;1734485;82;21322;-80
2023/07/28 08:16:37;;;;;;;17.37;12.13;;;;;;;19.51;100.00;98707.07;1734810;82;21326;-84
2023/07/28 08:19:44;;;;;;;17.60;13.20;;;;;;;19.46;100.00;98702.91;1737018;81;21890;-81
2023/07/28 08:22:50;;;;;;;18.70;13.28;;;;;;;19.46;100.00;98700.13;1737922;81;21277;-80
2023/07/28 08:25:55;;;;;;;17.60;13.15;;;;;;;19.52;100.00;98696.81;1734613;82;21325;-85
2023/07/28 08:29:02;;;;;;;31.82;16.95;;;;;;;19.46;100.00;98700.13;1747415;80;21805;-85
2023/07/28 08:32:07;;;;;;;37.40;23.12;;;;;;;19.45;100.00;98698.47;1743841;80;21319;-85
2023/07/28 08:35:13;;;;;;;51.30;31.90;;;;;;;19.48;100.00;98689.62;1765148;80;21278;-85
2023/07/28 08:38:19;;;;;;;58.85;36.48;;;;;;;19.70;100.00;98692.16;1764919;80;21727;-80
2023/07/28 08:41:24;;;;;;;47.95;32.23;;;;;;;19.57;100.00;98699.06;1758431;80;21298;-85
2023/07/28 08:44:32;;;;;;;47.73;30.95;;;;;;;19.58;100.00;98692.41;1765394;80;21349;-80
2023/07/28 08:47:30;;;;;;;30.48;20.15;;;;;;;19.74;100.00;98682.75;1764334;80;21935;-85
2023/07/28 08:50:35;;;;;;;28.07;16.10;;;;;;;19.66;100.00;98690.48;1775192;80;21251;-83
2023/07/28 08:53:42;;;;;;;18.37;11.65;;;;;;;20.09;100.00;98695.27;1768284;80;21831;-84
2023/07/28 08:56:47;;;;;;;10.23;8.10;;;;;;;20.02;100.00;98699.42;1767077;80;21306;-80
2023/07/28 08:59:53;;;;;;;10.10;6.42;;;;;;;20.32;100.00;98710.50;1768191;80;21859;-80
2023/07/28 09:03:01;;;;;;;4.85;4.20;;;;;;;20.48;100.00;98712.76;1751935;81;21179;-80
2023/07/28 09:06:10;;;;;;;4.08;2.92;;;;;;;19.88;100.00;98713.83;1768362;80;21334;-80
2023/07/28 09:09:17;;;;;;;4.05;2.87;;;;;;;19.97;100.00;98713.29;1770318;80;21285;-80
2023/07/28 09:12:23;;;;;;;5.70;2.50;;;;;;;20.25;100.00;98717.46;1772344;80;21263;-85
2023/07/28 09:15:30;;;;;;;8.63;2.37;;;;;;;20.39;100.00;98718.56;1758812;80;21240;-85
2023/07/28 09:18:37;;;;;;;4.95;3.47;;;;;;;20.23;100.00;98718.28;1773040;80;21343;-85
2023/07/28 09:21:43;;;;;;;4.55;3.95;;;;;;;19.96;100.00;98719.40;1750027;81;21832;-85
2023/07/28 09:24:48;;;;;;;3.80;3.40;;;;;;;20.03;100.00;98726.05;1744700;82;21317;-85
2023/07/28 09:28:00;;;;;;;5.33;4.10;;;;;;;19.98;100.00;98724.66;1747766;82;21307;-85
2023/07/28 09:31:06;;;;;;;5.87;3.85;;;;;;;20.54;100.00;98718.57;1759563;80;21279;-81
2023/07/28 09:34:16;;;;;;;4.87;4.25;;;;;;;20.86;100.00;98729.91;1711777;81;21298;-85
2023/07/28 09:37:23;;;;;;;4.10;3.70;;;;;;;20.80;99.99;98728.27;1755206;80;21275;-84
2023/07/28 09:40:29;;;;;;;4.53;3.50;;;;;;;20.83;99.00;98727.12;1758144;80;21249;-81
2023/07/28 09:43:35;;;;;;;4.75;3.80;;;;;;;20.90;98.79;98724.06;1756403;80;21914;-85
2023/07/28 09:46:44;;;;;;;3.83;3.17;;;;;;;20.90;98.28;98728.23;1758784;80;21259;-81
2023/07/28 09:49:53;;;;;;;5.20;3.45;;;;;;;20.85;97.92;98733.25;1752098;80;21895;-86
2023/07/28 09:53:00;;;;;;;5.25;3.72;;;;;;;20.87;97.72;98728.23;1763550;80;21282;-80
2023/07/28 09:56:06;;;;;;;3.47;3.17;;;;;;;20.95;97.21;98735.16;1761277;80;21279;-85
2023/07/28 09:59:16;;;;;;;4.47;2.90;;;;;;;21.40;95.99;98734.73;1772961;80;21334;-85
2023/07/28 10:02:22;;;;;;;2.77;2.55;;;;;;;21.13;97.04;98735.94;1753135;80;21255;-83
2023/07/28 10:05:29;;;;;;;3.10;1.92;;;;;;;21.59;95.29;98750.22;1716656;82;21259;-84
2023/07/28 10:08:35;;;;;;;3.65;2.80;;;;;;;21.16;95.87;98750.64;1771465;80;21826;-82
2023/07/28 10:11:40;;;;;;;2.90;2.37;;;;;;;21.31;96.94;98747.00;1735042;82;21840;-84
2023/07/28 10:14:46;;;;;;;2.83;2.42;;;;;;;21.45;96.50;98751.39;1739098;82;21257;-83
2023/07/28 10:18:01;;;;;;;3.70;2.40;;;;;;;21.49;96.75;98750.27;1739504;82;21884;-83
2023/07/28 10:21:06;;;;;;;3.80;2.70;;;;;;;21.29;97.08;98752.00;1766754;81;21267;-84
2023/07/28 10:24:11;;;;;;;3.27;2.15;;;;;;;21.39;95.89;98753.94;1738269;81;21821;-84
2023/07/28 10:27:17;;;;;;;2.27;1.60;;;;;;;21.48;95.38;98750.83;1736447;81;21845;-85
2023/07/28 10:30:22;;;;;;;2.30;1.47;;;;;;;21.61;94.22;98761.34;1763460;81;21301;-84
2023/07/28 10:33:48;;;;;;;2.77;1.77;;;;;;;21.61;94.04;98761.34;1765945;81;21267;-85
2023/07/28 10:36:54;;;;;;;1.82;1.60;;;;;;;21.72;92.88;98758.50;1766982;81;21266;-85
2023/07/28 10:40:38;;;;;;;1.52;1.32;;;;;;;21.75;93.18;98759.33;1766501;81;21302;-85
2023/07/28 10:43:46;;;;;;;1.65;1.55;;;;;;;22.05;92.88;98758.30;1765322;81;21259;-84
2023/07/28 10:46:52;;;;;;;4.70;1.62;;;;;;;21.97;91.07;98765.30;1766895;81;21277;-82
2023/07/28 10:49:57;;;;;;;2.67;1.62;;;;;;;21.97;90.50;98761.68;1742299;81;21266;-85
2023/07/28 10:53:03;;;;;;;5.55;2.75;;;;;;;22.02;91.15;98772.78;1739635;81;21965;-83
2023/07/28 10:56:12;;;;;;;4.40;2.20;;;;;;;21.99;90.81;98769.20;1763757;81;21306;-85
2023/07/28 10:59:11;;;;;;;1.90;1.70;;;;;;;22.20;89.80;98767.95;1762367;81;21254;-85
2023/07/28 11:02:24;;;;;;;2.35;1.98;;;;;;;22.38;88.51;98757.51;1760774;81;21274;-85
2023/07/28 11:05:35;;;;;;;2.40;1.95;;;;;;;22.28;89.32;98769.30;1759143;81;21865;-82
2023/07/28 11:08:40;;;;;;;3.30;2.17;;;;;;;22.58;87.40;98770.98;1760266;81;21305;-83
2023/07/28 11:11:47;;;;;;;3.47;2.33;;;;;;;22.58;87.40;98770.98;1760990;81;21838;-85
2023/07/28 11:14:56;;;;;;;3.10;2.30;;;;;;;21.61;91.73;98774.42;1753656;80;21303;-85
2023/07/28 11:18:01;;;;;;;2.20;2.00;;;;;;;21.60;94.78;98779.72;1750861;81;21282;-85
2023/07/28 11:21:08;;;;;;;2.80;2.50;;;;;;;21.76;95.25;98773.52;1732625;81;21303;-84
2023/07/28 11:24:20;;;;;;;3.50;2.17;;;;;;;21.85;94.71;98773.18;1732414;81;21365;-84
2023/07/28 11:27:26;;;;;;;2.85;2.08;;;;;;;22.06;93.90;98780.83;1747528;81;21267;-84
2023/07/28 11:30:34;;;;;;;1.92;1.75;;;;;;;21.99;92.54;98791.47;1733158;81;21736;-83
2023/07/28 11:33:41;;;;;;;1.75;1.65;;;;;;;22.22;91.09;98794.14;1705348;82;21172;-84
2023/07/28 11:36:47;;;;;;;1.80;1.30;;;;;;;22.57;89.71;98802.20;1740762;82;21271;-85
2023/07/28 11:39:52;;;;;;;2.40;1.35;;;;;;;22.49;89.83;98802.84;1752724;81;21270;-84
2023/07/28 11:43:03;;;;;;;2.33;1.12;;;;;;;22.32;91.66;98816.34;1753952;81;21344;-85
2023/07/28 11:46:10;;;;;;;1.30;1.20;;;;;;;22.45;90.60;98810.13;1753370;81;21259;-86
2023/07/28 11:49:28;;;;;;;1.62;1.50;;;;;;;22.34;90.03;98823.83;1754330;81;21352;-80
2023/07/28 11:52:41;;;;;;;4.17;1.90;;;;;;;21.32;95.90;98819.60;1754800;81;21299;-86
2023/07/28 11:55:47;;;;;;;2.00;1.80;;;;;;;21.35;98.95;98814.84;1751611;81;21840;-80
2023/07/28 11:58:54;;;;;;;1.70;1.60;;;;;;;20.98;99.66;98820.73;1735159;81;21283;-81
2023/07/28 12:02:10;;;;;;;5.10;1.60;;;;;;;20.81;100.00;98823.01;1736790;81;21861;-81
2023/07/28 12:05:22;;;;;;;2.92;1.60;;;;;;;20.75;100.00;98814.38;1755596;81;21239;-85
2023/07/28 12:08:41;;;;;;;1.67;1.57;;;;;;;20.63;100.00;98828.56;1754735;81;21335;-86
2023/07/28 12:11:51;;;;;;;4.37;2.00;;;;;;;20.81;100.00;98830.78;1752715;81;22199;-86
2023/07/28 12:15:07;;;;;;;;;;;;;;;20.80;99.05;98859.69;1757147;81;21293;-82
2023/07/28 12:18:23;;;;;;;1.67;1.57;;;;;;;20.75;100.00;98841.63;1763407;81;20277;-85
2023/07/28 12:21:32;;;;;;;4.65;2.40;;;;;;;21.06;99.39;98845.20;1757970;81;21246;-86
2023/07/28 12:24:38;;;;;;;2.25;2.05;;;;;;;20.85;99.00;98840.79;1758214;81;21345;-85
2023/07/28 12:27:44;;;;;;;4.78;3.02;;;;;;;20.63;99.13;98846.06;1762368;81;21291;-85
2023/07/28 12:30:51;;;;;;;4.03;3.62;;;;;;;20.84;98.85;98857.16;1779528;80;21897;-81
2023/07/28 12:33:57;;;;;;;4.17;3.75;;;;;;;20.93;99.01;98856.88;1776961;80;21783;-85
2023/07/28 12:37:03;;;;;;;6.70;3.50;;;;;;;20.80;98.84;98868.58;1771001;80;21255;-84
2023/07/28 12:40:02;;;;;;;5.45;4.17;;;;;;;20.84;98.00;98841.35;1774714;80;21840;-80
2023/07/28 12:43:09;;;;;;;7.60;5.58;;;;;;;20.62;98.84;98869.41;1783068;79;21349;-85
2023/07/28 12:46:16;;;;;;;7.72;6.95;;;;;;;20.60;100.00;98863.27;1784386;80;21307;-85
2023/07/28 12:49:21;;;;;;;7.30;6.42;;;;;;;20.82;99.66;98880.23;1783168;79;21307;-81
2023/07/28 12:52:21;;;;;;;12.35;5.90;;;;;;;20.81;98.93;98879.97;1784427;80;21855;-81
2023/07/28 12:55:30;;;;;;;5.03;4.50;;;;;;;20.66;98.57;98879.41;1782599;80;21279;-85
2023/07/28 12:58:35;;;;;;;4.22;3.85;;;;;;;20.58;99.04;98884.12;1782964;79;21957;-81
2023/07/28 13:01:44;;;;;;;4.95;3.80;;;;;;;20.42;99.75;98904.08;1784001;80;21693;-85
2023/07/28 13:04:49;;;;;;;3.55;3.20;;;;;;;20.47;99.91;98870.78;1782576;79;21653;-80
2023/07/28 13:07:56;;;;;;;6.08;3.50;;;;;;;20.61;98.68;98903.02;1782425;79;21989;-85
2023/07/28 13:11:03;;;;;;;5.62;3.10;;;;;;;20.59;97.69;98911.61;1784854;80;21302;-81
2023/07/28 13:14:11;;;;;;;4.78;3.25;;;;;;;20.59;97.27;98924.11;1784730;79;21346;-84
2023/07/28 13:17:17;;;;;;;4.17;3.15;;;;;;;20.46;98.13;98919.05;1785069;80;21318;-82
2023/07/28 13:20:24;;;;;;;3.67;3.12;;;;;;;20.50;97.98;98928.53;1785610;80;21268;-82
2023/07/28 13:23:31;;;;;;;4.55;3.40;;;;;;;20.36;99.65;98930.14;1785339;79;21310;-81
2023/07/28 13:26:37;;;;;;;3.77;3.30;;;;;;;20.29;98.30;98942.08;1784294;80;21307;-86
2023/07/28 13:29:44;;;;;;;5.55;3.33;;;;;;;20.29;99.17;98947.63;1784527;79;21330;-86
2023/07/28 13:32:50;;;;;;;4.95;3.72;;;;;;;20.36;98.87;98960.69;1785820;79;21192;-82
2023/07/28 13:35:57;;;;;;;9.10;4.40;;;;;;;20.27;99.13;98962.31;1784748;80;21243;-85
2023/07/28 13:39:03;;;;;;;5.80;4.03;;;;;;;20.24;98.61;98964.27;1784546;79;21354;-81
2023/07/28 13:42:09;;;;;;;12.65;5.65;;;;;;;20.33;99.52;98965.41;1785681;80;21844;-81
2023/07/28 13:45:15;;;;;;;10.45;5.97;;;;;;;20.33;100.00;98974.58;1785287;80;21923;-86
2023/07/28 13:48:21;;;;;;;6.35;5.37;;;;;;;20.27;100.00;98965.92;1785400;79;21302;-81
2023/07/28 13:51:27;;;;;;;6.83;5.30;;;;;;;20.35;98.49;98952.08;1785718;80;21283;-82
2023/07/28 13:54:28;;;;;;;7.50;4.90;;;;;;;20.40;97.81;98995.13;1783712;79;21374;-82
2023/07/28 13:57:35;;;;;;;7.10;4.90;;;;;;;20.34;97.72;98996.23;1784900;79;21303;-85
2023/07/28 14:00:42;;;;;;;6.45;4.25;;;;;;;20.19;98.44;99008.11;1784232;80;21895;-86
2023/07/28 14:03:48;;;;;;;4.80;3.95;;;;;;;20.07;99.62;99008.31;1785129;79;21350;-81
2023/07/28 14:06:53;;;;;;;4.90;4.30;;;;;;;20.43;97.40;99012.09;1784444;80;21307;-82
2023/07/28 14:09:59;;;;;;;7.28;3.90;;;;;;;20.12;99.11;99014.45;1784351;79;21314;-82
2023/07/28 14:12:57;;;;;;;4.60;3.75;;;;;;;19.85;99.35;99024.28;1785875;79;21215;-85
2023/07/28 14:16:03;;;;;;;7.08;4.30;;;;;;;20.10;99.05;99023.61;1785100;80;21287;-85
2023/07/28 14:19:09;;;;;;;7.78;4.78;;;;;;;20.02;98.57;99037.44;1783434;79;21597;-82
2023/07/28 14:22:16;;;;;;;5.20;4.70;;;;;;;20.17;97.89;99026.41;1785720;80;21288;-83
2023/07/28 14:25:23;;;;;;;10.63;5.10;;;;;;;20.06;97.41;99028.86;1785820;80;21303;-85
2023/07/28 14:28:30;;;;;;;5.75;5.22;;;;;;;20.02;99.41;99033.83;1785578;79;21937;-86
2023/07/28 14:31:35;;;;;;;9.43;5.78;;;;;;;20.03;100.00;99030.77;1786185;80;21323;-86
2023/07/28 14:34:42;;;;;;;8.23;6.72;;;;;;;20.22;99.82;99041.42;1786011;79;21298;-86
2023/07/28 14:37:48;;;;;;;7.80;6.87;;;;;;;20.27;97.49;99037.28;1785727;79;21311;-85
2023/07/28 14:40:54;;;;;;;7.90;6.47;;;;;;;20.41;97.89;99043.45;1785967;80;21278;-84
2023/07/28 14:44:00;;;;;;;13.80;7.20;;;;;;;20.36;96.82;99048.98;1715798;82;21358;-85
2023/07/28 14:47:05;;;;;;;8.93;7.05;;;;;;;20.61;95.97;99049.69;1754329;82;21308;-87
2023/07/28 14:54:21;;;;;;;12.98;6.80;;;;;;;20.63;96.03;99058.58;1787013;79;21314;-84
2023/07/28 14:57:30;;;;;;;6.00;5.42;;;;;;;20.94;94.75;99067.02;1786867;80;21279;-84
2023/07/28 15:00:36;;;;;;;11.95;6.70;;;;;;;20.99;93.25;99057.30;1788099;80;21827;-84
2023/07/28 15:03:43;;;;;;;6.78;5.72;;;;;;;21.16;92.85;99060.64;1787172;79;21321;-85
2023/07/28 15:06:49;;;;;;;7.45;5.37;;;;;;;21.22;91.25;99059.25;1787385;80;21870;-87
2023/07/28 15:09:55;;;;;;;7.35;5.85;;;;;;;21.19;91.43;99067.05;1786636;79;21315;-87
2023/07/28 15:12:54;;;;;;;10.40;5.60;;;;;;;21.08;90.29;99072.33;1788212;79;21334;-87
2023/07/28 15:16:00;;;;;;;6.80;5.30;;;;;;;21.10;90.75;99049.80;1788147;80;21274;-85
2023/07/28 15:19:06;;;;;;;7.97;4.65;;;;;;;21.29;90.86;99089.03;1785650;79;21874;-86
2023/07/28 15:22:13;;;;;;;13.60;5.97;;;;;;;21.39;89.92;99091.85;1785392;80;21240;-86
2023/07/28 15:25:19;;;;;;;6.10;4.60;;;;;;;21.41;90.65;99092.43;1785369;80;21283;-86
2023/07/28 15:28:23;;;;;;;12.58;5.62;;;;;;;21.54;90.45;99089.63;1784858;79;21844;-86
2023/07/28 15:31:29;;;;;;;10.43;4.90;;;;;;;21.27;89.59;99082.92;1785186;80;21836;-85
2023/07/28 15:34:36;;;;;;;10.95;5.35;;;;;;;21.33;88.92;99097.14;1784052;79;21350;-86
2023/07/28 15:37:43;;;;;;;6.90;5.45;;;;;;;21.12;90.07;99109.56;1784397;79;21286;-85
2023/07/28 15:40:48;;;;;;;7.20;5.10;;;;;;;21.24;88.93;99116.84;1785308;80;21288;-85
2023/07/28 15:43:55;;;;;;;7.00;5.05;;;;;;;21.44;88.86;99123.28;1784727;79;21318;-84
2023/07/28 15:47:01;;;;;;;11.05;4.80;;;;;;;21.69;87.04;99117.48;1761520;80;21311;-86
2023/07/28 15:50:11;;;;;;;5.47;4.08;;;;;;;21.58;86.74;99122.75;1757166;80;21298;-86
2023/07/28 15:53:18;;;;;;;5.10;4.17;;;;;;;21.61;87.44;99130.55;1784902;79;21334;-85
2023/07/28 15:56:24;;;;;;;5.83;3.58;;;;;;;21.84;87.58;99120.81;1785303;80;21310;-85
2023/07/28 15:59:31;;;;;;;6.17;3.67;;;;;;;21.90;86.80;99140.00;1784205;79;21345;-86
2023/07/28 16:02:37;;;;;;;5.62;3.47;;;;;;;22.36;85.70;99134.41;1783891;79;21283;-85
2023/07/28 16:05:44;;;;;;;3.65;3.25;;;;;;;22.27;87.45;99136.11;1785276;80;21840;-84
2023/07/28 16:08:50;;;;;;;8.25;3.08;;;;;;;22.21;84.42;99138.63;1762337;80;21278;-85
2023/07/28 16:11:57;;;;;;;3.77;2.70;;;;;;;22.15;84.77;99151.70;1784076;80;21278;-85
2023/07/28 16:15:04;;;;;;;4.00;3.02;;;;;;;22.05;85.28;99151.69;1749286;82;21286;-86
2023/07/28 16:18:10;;;;;;;9.28;3.08;;;;;;;22.11;84.66;99161.77;1783250;79;21949;-84
2023/07/28 16:21:17;;;;;;;4.72;2.72;;;;;;;22.06;84.88;99171.45;1783402;80;21187;-85
2023/07/28 16:24:24;;;;;;;5.45;2.62;;;;;;;21.73;86.62;99166.44;1785500;79;21270;-85
2023/07/28 16:27:30;;;;;;;4.70;3.00;;;;;;;21.93;88.25;99177.60;1785330;80;21914;-85
2023/07/28 16:30:36;;;;;;;5.53;2.60;;;;;;;21.86;87.67;99178.42;1786805;80;21902;-85
2023/07/28 16:33:44;;;;;;;6.25;3.00;;;;;;;21.85;86.19;99182.32;1785649;79;21290;-86
2023/07/28 16:36:50;;;;;;;6.17;2.75;;;;;;;22.17;86.59;99182.08;1786571;80;21331;-86
2023/07/28 16:39:56;;;;;;;6.58;3.00;;;;;;;22.39;84.85;99182.58;1785129;79;21322;-84
2023/07/28 16:43:02;;;;;;;6.05;2.62;;;;;;;22.47;84.41;99194.28;1786572;79;21322;-86
2023/07/28 16:46:11;;;;;;;7.85;2.75;;;;;;;21.66;85.86;99189.81;1786769;80;21304;-85
2023/07/28 16:49:18;;;;;;;6.58;3.17;;;;;;;21.68;86.39;99197.32;1785760;79;21322;-83
2023/07/28 16:52:27;;;;;;;6.80;3.77;;;;;;;21.36;86.61;99190.60;1786579;80;21263;-85
2023/07/28 16:55:33;;;;;;;7.22;3.37;;;;;;;21.29;88.43;99188.59;1762086;80;21263;-84
2023/07/28 16:58:32;;;;;;;;;;;;;;;21.16;85.84;99195.49;1788877;79;21314;-86
2023/07/28 17:01:39;;;;;;;6.10;3.47;;;;;;;21.23;89.32;99195.81;1754915;81;20252;-84
2023/07/28 17:04:46;;;;;;;8.65;3.60;;;;;;;22.04;84.09;99195.97;1753320;80;21291;-86
2023/07/28 17:07:52;;;;;;;7.87;3.55;;;;;;;22.10;83.86;99196.79;1786567;79;21859;-84
2023/07/28 17:10:59;;;;;;;5.80;3.83;;;;;;;21.93;84.52;99200.70;1753483;82;21652;-85
2023/07/28 17:14:05;;;;;;;7.28;3.25;;;;;;;22.09;82.22;99204.88;1733699;82;21302;-85
2023/07/28 17:17:10;;;;;;;7.65;3.58;;;;;;;22.07;82.46;99214.91;1754128;82;21840;-84
2023/07/28 17:20:15;;;;;;;6.12;3.33;;;;;;;22.12;83.71;99212.72;1786199;80;21301;-86
2023/07/28 17:23:21;;;;;;;6.40;3.17;;;;;;;21.93;83.44;99211.00;1782933;79;21315;-84
2023/07/28 17:26:27;;;;;;;4.47;3.22;;;;;;;21.63;86.64;99215.40;1784000;80;21353;-85
2023/07/28 17:29:33;;;;;;;4.58;3.00;;;;;;;21.90;86.12;99219.34;1782705;79;21910;-84
2023/07/28 17:32:40;;;;;;;5.12;3.00;;;;;;;21.93;85.34;99224.37;1783934;79;21330;-85
2023/07/28 17:35:48;;;;;;;5.62;2.60;;;;;;;21.94;85.72;99232.16;1773970;80;21286;-86
2023/07/28 17:39:07;;;;;;;5.30;2.80;;;;;;;22.11;85.68;99234.16;1752697;82;21318;-86
2023/07/28 17:42:16;;;;;;;5.72;2.70;;;;;;;21.60;87.35;99235.45;1750554;82;21243;-86
2023/07/28 17:45:25;;;;;;;4.62;2.60;;;;;;;21.99;86.00;99243.86;1721040;82;21314;-85
2023/07/28 17:48:31;;;;;;;7.35;2.77;;;;;;;21.49;86.88;99250.98;1742953;82;21311;-84
2023/07/28 17:51:37;;;;;;;4.80;2.65;;;;;;;21.59;86.85;99249.61;1743315;82;21326;-85